Flight Track Log - Related Links

Times and Time Zones

All times are in EDT time to prevent confusion due to time zone crossing. See the PN6210 flight status page for this flight to view local times or setup timezone preferences in your user account.


Time Position Orientation Groundspeed Altitude Reporting Facility
EDT Latitude Longitude Course Direction KTS MPH feet Rate Location/Type
Sat 03:00:00 AM 34.3995 112.8720 262° West  Level Estimated
Sat 03:01:00 AM 34.3857 112.7646 261° West  Level Estimated
Sat 03:02:00 AM 34.3718 112.6571 261° West  Level Estimated
Sat 03:03:00 AM 34.3578 112.5497 261° West  Level Estimated
Sat 03:04:00 AM 34.3437 112.4424 261° West  Level Estimated
Sat 03:05:00 AM 34.3295 112.3350 261° West  Level Estimated
Sat 03:06:00 AM 34.3152 112.2277 261° West  Level Estimated
Sat 03:07:00 AM 34.3008 112.1205 261° West  Level Estimated
Sat 03:08:00 AM 34.2864 112.0132 261° West  Level Estimated
Sat 03:09:00 AM 34.2718 111.9061 261° West  Level Estimated
Sat 03:10:00 AM 34.2571 111.7989 261° West  Level Estimated
Sat 03:11:00 AM 34.2424 111.6918 261° West  Level Estimated
Sat 03:12:00 AM 34.2275 111.5847 261° West  Level Estimated
Sat 03:13:00 AM 34.2126 111.4777 260° West  Level Estimated
Sat 03:14:00 AM 34.1976 111.3707 260° West  Level Estimated
Sat 03:15:00 AM 34.1824 111.2637 260° West  Level Estimated
Sat 03:16:00 AM 34.1672 111.1568 260° West  Level Estimated
Sat 03:17:00 AM 34.1519 111.0499 260° West  Level Estimated
Sat 03:18:00 AM 34.1365 110.9431 260° West  Level Estimated
Sat 03:19:00 AM 34.1210 110.8363 260° West  Level Estimated
Sat 03:20:00 AM 34.1054 110.7295 260° West  Level Estimated
Sat 03:21:00 AM 34.0897 110.6228 260° West  Level Estimated
Sat 03:22:00 AM 34.0740 110.5161 260° West  Level Estimated
Sat 03:23:00 AM 34.0581 110.4094 260° West  Level Estimated
Sat 03:24:00 AM 34.0421 110.3028 260° West  Level Estimated
Sat 03:25:00 AM 34.0261 110.1963 260° West  Level Estimated
Sat 03:26:00 AM 34.0099 110.0897 260° West  Level Estimated
Sat 03:27:00 AM 33.9937 109.9833 260° West  Level Estimated
Sat 03:28:00 AM 33.9774 109.8768 260° West  Level Estimated
Sat 03:29:00 AM 33.9610 109.7704 259° West  Level Estimated
Sat 03:30:00 AM 33.9445 109.6641 259° West  Level Estimated
Sat 03:31:00 AM 33.9279 109.5577 259° West  Level Estimated
Sat 03:32:00 AM 33.9112 109.4515 259° West  Level Estimated
Sat 03:33:00 AM 33.8944 109.3452 259° West  Level Estimated
Sat 03:34:00 AM 33.8775 109.2390 259° West  Level Estimated
Sat 03:35:00 AM 33.8606 109.1329 259° West  Level Estimated
Sat 03:36:00 AM 33.8435 109.0268 259° West  Level Estimated
Sat 03:37:00 AM 33.8264 108.9207 259° West  Level Estimated
Sat 03:38:00 AM 33.8091 108.8147 259° West  Level Estimated
Sat 03:39:00 AM 33.7918 108.7087 259° West  Level Estimated
Sat 03:40:00 AM 33.7744 108.6027 259° West  Level Estimated
Sat 03:41:00 AM 33.7569 108.4968 259° West  Level Estimated
Sat 03:42:00 AM 33.7393 108.3910 259° West  Level Estimated
Sat 03:43:00 AM 33.7216 108.2852 259° West  Level Estimated
Sat 03:44:00 AM 33.7038 108.1794 259° West  Level Estimated
Sat 03:45:00 AM 33.6859 108.0737 259° West  Level Estimated
Sat 03:46:00 AM 33.6679 107.9680 258° West  Level Estimated
Sat 03:47:00 AM 33.6499 107.8624 258° West  Level Estimated
Sat 03:48:00 AM 33.6318 107.7568 258° West  Level Estimated
Sat 03:49:00 AM 33.6135 107.6513 258° West  Level Estimated
Sat 03:50:00 AM 33.5952 107.5458 258° West  Level Estimated
Sat 03:51:00 AM 33.5768 107.4403 258° West  Level Estimated
Sat 03:52:00 AM 33.5583 107.3349 258° West  Level Estimated
Sat 03:53:00 AM 33.5397 107.2295 258° West  Level Estimated
Sat 03:54:00 AM 33.5210 107.1242 258° West  Level Estimated
Sat 03:55:00 AM 33.5023 107.0189 258° West  Level Estimated
Sat 03:56:00 AM 33.4834 106.9137 258° West  Level Estimated
Sat 03:57:00 AM 33.4645 106.8085 258° West  Level Estimated
Sat 03:58:00 AM 33.4454 106.7034 258° West  Level Estimated
Sat 03:59:00 AM 33.4263 106.5983 258° West  Level Estimated
Sat 04:00:00 AM 33.4071 106.4932 258° West  Level Estimated
Sat 04:01:00 AM 33.3878 106.3883 258° West  Level Estimated
Sat 04:02:00 AM 33.3684 106.2833 258° West  Level Estimated
Sat 04:03:00 AM 33.3489 106.1784 257° West  Level Estimated
Sat 04:04:00 AM 33.3294 106.0735 257° West  Level Estimated
Sat 04:05:00 AM 33.3097 105.9687 257° West  Level Estimated
Sat 04:06:00 AM 33.2900 105.8640 257° West  Level Estimated
Sat 04:07:00 AM 33.2702 105.7593 257° West  Level Estimated
Sat 04:08:00 AM 33.2503 105.6546 257° West  Level Estimated
Sat 04:09:00 AM 33.2303 105.5500 257° West  Level Estimated
Sat 04:10:00 AM 33.2102 105.4454 257° West  Level Estimated
Sat 04:11:00 AM 33.1900 105.3409 257° West  Level Estimated
Sat 04:12:00 AM 33.1697 105.2364 257° West  Level Estimated
Sat 04:13:00 AM 33.1494 105.1320 257° West  Level Estimated
Sat 04:14:00 AM 33.1289 105.0276 257° West  Level Estimated
Sat 04:15:00 AM 33.1084 104.9233 257° West  Level Estimated
Sat 04:16:00 AM 33.0878 104.8190 257° West  Level Estimated
Sat 04:17:00 AM 33.0671 104.7148 257° West  Level Estimated
Sat 04:18:00 AM 33.0463 104.6106 257° West  Level Estimated
Sat 04:19:00 AM 33.0255 104.5064 257° West  Level Estimated
Sat 04:20:00 AM 33.0045 104.4024 257° West  Level Estimated
Sat 04:21:00 AM 32.9835 104.2983 256° West  Level Estimated
Sat 04:22:00 AM 32.9623 104.1944 256° West  Level Estimated
Sat 04:23:00 AM 32.9411 104.0904 256° West  Level Estimated
Sat 04:24:00 AM 32.9198 103.9865 256° West  Level Estimated
Sat 04:25:00 AM 32.8984 103.8827 256° West  Level Estimated
Sat 04:26:00 AM 32.8769 103.7789 256° West  Level Estimated
Sat 04:27:00 AM 32.8570 103.6830 256° West  Level Estimated
Sat 04:28:00 AM 32.8570 103.6830 North  Level Estimated
Sat 04:29:00 AM 32.8570 103.6830 North  Level Estimated
Sat 04:30:00 AM 32.8570 103.6830 North  Level Estimated
Sat 04:31:00 AM 32.8570 103.6830 North  Level Estimated
Sat 04:32:00 AM 32.8570 103.6830 North  Level Estimated
Sat 04:33:00 AM 32.8570 103.6830 North  Level Estimated

Login

Don't have an account? Register now (free) for customized features, flight alerts, and more!